Chemical Marketer — 9HA2018 — position and weather

sailwx.info

Track history (hours):
 
Tides and Currents Weather Stations Pressure Air Temp Water Temp Dewpoint Dewpoint Depression Visibility Wind Speed Wind Dir Waves Ship Positions

Chemical Marketer

Last reported at 2018-Apr-18 23:43 UTC. Time now 2018-Apr-24 16:42 UTC.
Position N 37°22' E 025°55'.

Length 134 m; draft 4.8 m.

Type: Ship (hazmat cat A). MMSI: 249814000.

Date/timePositionNaut miles runAvg speedWind from/ knotsBaromVisibWave heightAir tempDewpointWater temp
2018-Apr-18 23:43N 37°22' E 025°55'314.1
2018-Apr-18 23:31N 37°25' E 025°53'1614.0
2018-Apr-18 22:22N 37°39' E 025°44'514.0
2018-Apr-18 21:59N 37°44' E 025°41'713.9
2018-Apr-18 21:29N 37°50' E 025°38'241 6.4
2018-Apr-17 07:50N 40°54' E 028°59'3 9.1
2018-Apr-17 07:28N 40°52' E 029°01'611.5
2018-Apr-17 06:59N 40°48' E 029°07'612.5
2018-Apr-17 06:30N 40°46' E 029°14'  
2018-Apr-10 18:41N 36°20' E 014°57'2 9.6
2018-Apr-10 18:28N 36°20' E 014°55'612.5
2018-Apr-10 18:00N 36°20' E 014°48'612.4
2018-Apr-10 17:29N 36°21' E 014°40'612.4
2018-Apr-10 16:59N 36°21' E 014°32'612.5
2018-Apr-10 16:30N 36°21' E 014°25'612.5
2018-Apr-10 16:00N 36°22' E 014°17'912.4
2018-Apr-10 15:17N 36°25' E 014°07'311.3
2018-Apr-10 15:00N 36°26' E 014°03'612.7
2018-Apr-10 14:30N 36°28' E 013°55'612.7
2018-Apr-10 14:00N 36°30' E 013°48'612.1
2018-Apr-10 13:30N 36°32' E 013°41'612.5
2018-Apr-10 13:00N 36°34' E 013°33'612.3
2018-Apr-10 12:30N 36°35' E 013°26'612.5
2018-Apr-10 11:59N 36°38' E 013°18'814.1
2018-Apr-10 11:26N 36°40' E 013°09'711.4
2018-Apr-10 10:51N 36°42' E 013°01'  
Track history (hours):
 
Tides and Currents Weather Stations Pressure Air Temp Water Temp Dewpoint Dewpoint Depression Visibility Wind Speed Wind Dir Waves Ship Positions

Chemical Marketer

Last reported at 2018-Apr-18 23:43 UTC. Time now 2018-Apr-24 16:42 UTC.
Position N 37°22' E 025°55'.

Length 134 m; draft 4.8 m.

Type: Ship (hazmat cat A). MMSI: 249814000.

Date/timePositionNaut miles runAvg speedWind from/ knotsBaromVisibWave heightAir tempDewpointWater temp
2018-Apr-18 23:43N 37°22' E 025°55'314.1
2018-Apr-18 23:31N 37°25' E 025°53'1614.0
2018-Apr-18 22:22N 37°39' E 025°44'514.0
2018-Apr-18 21:59N 37°44' E 025°41'713.9
2018-Apr-18 21:29N 37°50' E 025°38'241 6.4
2018-Apr-17 07:50N 40°54' E 028°59'3 9.1
2018-Apr-17 07:28N 40°52' E 029°01'611.5
2018-Apr-17 06:59N 40°48' E 029°07'612.5
2018-Apr-17 06:30N 40°46' E 029°14'  
2018-Apr-10 18:41N 36°20' E 014°57'2 9.6
2018-Apr-10 18:28N 36°20' E 014°55'612.5
2018-Apr-10 18:00N 36°20' E 014°48'612.4
2018-Apr-10 17:29N 36°21' E 014°40'612.4
2018-Apr-10 16:59N 36°21' E 014°32'612.5
2018-Apr-10 16:30N 36°21' E 014°25'612.5
2018-Apr-10 16:00N 36°22' E 014°17'912.4
2018-Apr-10 15:17N 36°25' E 014°07'311.3
2018-Apr-10 15:00N 36°26' E 014°03'612.7
2018-Apr-10 14:30N 36°28' E 013°55'612.7
2018-Apr-10 14:00N 36°30' E 013°48'612.1
2018-Apr-10 13:30N 36°32' E 013°41'612.5
2018-Apr-10 13:00N 36°34' E 013°33'612.3
2018-Apr-10 12:30N 36°35' E 013°26'612.5
2018-Apr-10 11:59N 36°38' E 013°18'814.1
2018-Apr-10 11:26N 36°40' E 013°09'711.4
2018-Apr-10 10:51N 36°42' E 013°01'  

Dump ship's entire track history